sensor_id;sensor_type;location;lat;lon;timestamp;temperature;humidity
40085;DHT22;25786;51.504;7.344;2023-04-24T00:00:31;12.00;73.30
40085;DHT22;25786;51.504;7.344;2023-04-24T00:02:57;12.00;73.80
40085;DHT22;25786;51.504;7.344;2023-04-24T00:05:23;11.90;74.00
40085;DHT22;25786;51.504;7.344;2023-04-24T00:07:48;11.90;74.00
40085;DHT22;25786;51.504;7.344;2023-04-24T00:10:14;12.00;74.20
40085;DHT22;25786;51.504;7.344;2023-04-24T00:12:39;11.90;73.90
40085;DHT22;25786;51.504;7.344;2023-04-24T00:15:05;11.90;74.20
40085;DHT22;25786;51.504;7.344;2023-04-24T00:17:31;11.80;73.80
40085;DHT22;25786;51.504;7.344;2023-04-24T00:19:57;11.80;73.90
40085;DHT22;25786;51.504;7.344;2023-04-24T00:22:26;11.80;74.20
40085;DHT22;25786;51.504;7.344;2023-04-24T00:24:52;11.70;74.10
40085;DHT22;25786;51.504;7.344;2023-04-24T00:27:17;11.60;74.20
40085;DHT22;25786;51.504;7.344;2023-04-24T00:29:43;11.50;73.90
40085;DHT22;25786;51.504;7.344;2023-04-24T00:32:08;11.60;74.00
40085;DHT22;25786;51.504;7.344;2023-04-24T00:34:34;11.50;74.20
40085;DHT22;25786;51.504;7.344;2023-04-24T00:36:59;11.40;74.50
40085;DHT22;25786;51.504;7.344;2023-04-24T00:39:25;11.40;74.60
40085;DHT22;25786;51.504;7.344;2023-04-24T00:41:51;11.40;74.20
40085;DHT22;25786;51.504;7.344;2023-04-24T00:44:16;11.30;74.20
40085;DHT22;25786;51.504;7.344;2023-04-24T00:46:42;11.30;74.10
40085;DHT22;25786;51.504;7.344;2023-04-24T00:49:07;11.20;74.80
40085;DHT22;25786;51.504;7.344;2023-04-24T00:51:33;11.20;74.60
40085;DHT22;25786;51.504;7.344;2023-04-24T00:54:00;11.10;74.20
40085;DHT22;25786;51.504;7.344;2023-04-24T00:56:26;11.20;74.30
40085;DHT22;25786;51.504;7.344;2023-04-24T00:58:51;11.20;74.60
40085;DHT22;25786;51.504;7.344;2023-04-24T01:01:20;11.10;74.50
40085;DHT22;25786;51.504;7.344;2023-04-24T01:03:46;11.10;74.20
40085;DHT22;25786;51.504;7.344;2023-04-24T01:06:12;11.10;74.50
40085;DHT22;25786;51.504;7.344;2023-04-24T01:08:38;11.10;75.10
40085;DHT22;25786;51.504;7.344;2023-04-24T01:11:04;11.00;75.30
40085;DHT22;25786;51.504;7.344;2023-04-24T01:13:30;11.00;75.40
40085;DHT22;25786;51.504;7.344;2023-04-24T01:15:56;11.00;75.40
40085;DHT22;25786;51.504;7.344;2023-04-24T01:18:22;10.90;75.40
40085;DHT22;25786;51.504;7.344;2023-04-24T01:20:48;10.90;74.60
40085;DHT22;25786;51.504;7.344;2023-04-24T01:23:16;10.90;74.40
40085;DHT22;25786;51.504;7.344;2023-04-24T01:25:42;10.90;74.70
40085;DHT22;25786;51.504;7.344;2023-04-24T01:31:11;10.90;74.20
40085;DHT22;25786;51.504;7.344;2023-04-24T01:33:36;11.00;73.30
40085;DHT22;25786;51.504;7.344;2023-04-24T01:36:02;11.00;73.20
40085;DHT22;25786;51.504;7.344;2023-04-24T01:38:27;11.10;72.60
40085;DHT22;25786;51.504;7.344;2023-04-24T01:40:53;11.00;72.80
40085;DHT22;25786;51.504;7.344;2023-04-24T01:43:18;11.10;72.60
40085;DHT22;25786;51.504;7.344;2023-04-24T01:45:44;11.00;72.20
40085;DHT22;25786;51.504;7.344;2023-04-24T01:48:11;11.00;72.60
40085;DHT22;25786;51.504;7.344;2023-04-24T01:50:36;11.00;73.10
40085;DHT22;25786;51.504;7.344;2023-04-24T01:53:02;11.00;73.10
40085;DHT22;25786;51.504;7.344;2023-04-24T01:55:27;11.00;73.50
40085;DHT22;25786;51.504;7.344;2023-04-24T01:57:53;11.00;73.60
40085;DHT22;25786;51.504;7.344;2023-04-24T02:00:20;11.00;73.70
40085;DHT22;25786;51.504;7.344;2023-04-24T02:02:45;10.80;74.10
40085;DHT22;25786;51.504;7.344;2023-04-24T02:05:11;10.80;74.40
40085;DHT22;25786;51.504;7.344;2023-04-24T02:07:36;10.60;75.00
40085;DHT22;25786;51.504;7.344;2023-04-24T02:10:02;10.70;74.70
40085;DHT22;25786;51.504;7.344;2023-04-24T02:12:29;10.60;74.70
40085;DHT22;25786;51.504;7.344;2023-04-24T02:14:54;10.50;75.30
40085;DHT22;25786;51.504;7.344;2023-04-24T02:17:20;10.50;75.40
40085;DHT22;25786;51.504;7.344;2023-04-24T02:19:45;10.50;75.40
40085;DHT22;25786;51.504;7.344;2023-04-24T02:22:11;10.50;75.50
40085;DHT22;25786;51.504;7.344;2023-04-24T02:24:37;10.40;75.60
40085;DHT22;25786;51.504;7.344;2023-04-24T02:27:03;10.40;75.30
40085;DHT22;25786;51.504;7.344;2023-04-24T02:29:28;10.30;75.90
40085;DHT22;25786;51.504;7.344;2023-04-24T02:31:54;10.20;75.90
40085;DHT22;25786;51.504;7.344;2023-04-24T02:34:19;10.20;75.80
40085;DHT22;25786;51.504;7.344;2023-04-24T02:36:44;10.10;76.70
40085;DHT22;25786;51.504;7.344;2023-04-24T02:39:10;10.00;76.70
40085;DHT22;25786;51.504;7.344;2023-04-24T02:41:35;9.90;77.30
40085;DHT22;25786;51.504;7.344;2023-04-24T02:44:01;9.80;77.50
40085;DHT22;25786;51.504;7.344;2023-04-24T02:46:26;9.90;77.50
40085;DHT22;25786;51.504;7.344;2023-04-24T02:48:52;9.90;77.70
40085;DHT22;25786;51.504;7.344;2023-04-24T02:51:17;9.90;77.20
40085;DHT22;25786;51.504;7.344;2023-04-24T02:53:43;9.90;77.50
40085;DHT22;25786;51.504;7.344;2023-04-24T02:56:08;9.90;77.40
40085;DHT22;25786;51.504;7.344;2023-04-24T02:58:34;9.90;77.70
40085;DHT22;25786;51.504;7.344;2023-04-24T03:01:00;9.90;77.50
40085;DHT22;25786;51.504;7.344;2023-04-24T03:03:26;9.90;77.60
40085;DHT22;25786;51.504;7.344;2023-04-24T03:05:51;9.90;77.80
40085;DHT22;25786;51.504;7.344;2023-04-24T03:08:20;9.90;77.90
40085;DHT22;25786;51.504;7.344;2023-04-24T03:10:45;10.00;78.00
40085;DHT22;25786;51.504;7.344;2023-04-24T03:13:11;9.90;78.30
40085;DHT22;25786;51.504;7.344;2023-04-24T03:15:36;10.00;78.00
40085;DHT22;25786;51.504;7.344;2023-04-24T03:18:02;10.00;77.80
40085;DHT22;25786;51.504;7.344;2023-04-24T03:20:27;10.10;78.00
40085;DHT22;25786;51.504;7.344;2023-04-24T03:22:53;10.10;77.80
40085;DHT22;25786;51.504;7.344;2023-04-24T03:25:18;10.10;78.00
40085;DHT22;25786;51.504;7.344;2023-04-24T03:27:44;10.10;77.90
40085;DHT22;25786;51.504;7.344;2023-04-24T03:30:10;10.10;77.70
40085;DHT22;25786;51.504;7.344;2023-04-24T03:32:35;10.10;77.90
40085;DHT22;25786;51.504;7.344;2023-04-24T03:35:01;10.10;78.00
40085;DHT22;25786;51.504;7.344;2023-04-24T03:37:26;10.00;78.30
40085;DHT22;25786;51.504;7.344;2023-04-24T03:39:51;10.10;78.40
40085;DHT22;25786;51.504;7.344;2023-04-24T03:42:17;10.10;78.30
40085;DHT22;25786;51.504;7.344;2023-04-24T03:44:42;10.10;78.20
40085;DHT22;25786;51.504;7.344;2023-04-24T03:47:08;10.10;77.80
40085;DHT22;25786;51.504;7.344;2023-04-24T03:49:33;10.10;78.10
40085;DHT22;25786;51.504;7.344;2023-04-24T03:51:59;10.10;78.00
40085;DHT22;25786;51.504;7.344;2023-04-24T03:54:24;10.20;77.80
40085;DHT22;25786;51.504;7.344;2023-04-24T03:56:50;10.20;77.70
40085;DHT22;25786;51.504;7.344;2023-04-24T03:59:15;10.20;78.00
40085;DHT22;25786;51.504;7.344;2023-04-24T04:01:40;10.10;78.10
40085;DHT22;25786;51.504;7.344;2023-04-24T04:04:06;10.10;78.10
40085;DHT22;25786;51.504;7.344;2023-04-24T04:06:32;10.10;77.80
40085;DHT22;25786;51.504;7.344;2023-04-24T04:08:57;10.10;78.10
40085;DHT22;25786;51.504;7.344;2023-04-24T04:11:23;10.10;77.90
40085;DHT22;25786;51.504;7.344;2023-04-24T04:13:49;10.10;78.00
40085;DHT22;25786;51.504;7.344;2023-04-24T04:16:14;10.10;78.40
40085;DHT22;25786;51.504;7.344;2023-04-24T04:18:42;10.10;77.70
40085;DHT22;25786;51.504;7.344;2023-04-24T04:21:07;10.20;77.60
40085;DHT22;25786;51.504;7.344;2023-04-24T04:23:33;10.10;77.80
40085;DHT22;25786;51.504;7.344;2023-04-24T04:25:58;10.10;78.10
40085;DHT22;25786;51.504;7.344;2023-04-24T04:28:24;10.10;77.90
40085;DHT22;25786;51.504;7.344;2023-04-24T04:30:50;10.10;77.80
40085;DHT22;25786;51.504;7.344;2023-04-24T04:33:24;10.10;77.90
40085;DHT22;25786;51.504;7.344;2023-04-24T04:35:51;10.10;77.90
40085;DHT22;25786;51.504;7.344;2023-04-24T04:38:22;10.10;78.00
40085;DHT22;25786;51.504;7.344;2023-04-24T04:40:55;10.10;78.00
40085;DHT22;25786;51.504;7.344;2023-04-24T04:43:22;10.10;77.80
40085;DHT22;25786;51.504;7.344;2023-04-24T04:45:48;10.10;77.70
40085;DHT22;25786;51.504;7.344;2023-04-24T04:48:13;10.10;77.60
40085;DHT22;25786;51.504;7.344;2023-04-24T04:50:44;10.10;77.70
40085;DHT22;25786;51.504;7.344;2023-04-24T04:53:10;10.20;77.10
40085;DHT22;25786;51.504;7.344;2023-04-24T04:55:47;10.20;77.30
40085;DHT22;25786;51.504;7.344;2023-04-24T04:58:13;10.20;77.20
40085;DHT22;25786;51.504;7.344;2023-04-24T05:00:38;10.10;77.40
40085;DHT22;25786;51.504;7.344;2023-04-24T05:03:13;10.20;77.20
40085;DHT22;25786;51.504;7.344;2023-04-24T05:05:38;10.10;77.20
40085;DHT22;25786;51.504;7.344;2023-04-24T05:08:06;10.20;77.20
40085;DHT22;25786;51.504;7.344;2023-04-24T05:10:40;10.20;77.10
40085;DHT22;25786;51.504;7.344;2023-04-24T05:13:09;10.10;77.30
40085;DHT22;25786;51.504;7.344;2023-04-24T05:15:34;10.10;77.50
40085;DHT22;25786;51.504;7.344;2023-04-24T05:18:00;10.10;77.20
40085;DHT22;25786;51.504;7.344;2023-04-24T05:20:29;10.20;77.40
40085;DHT22;25786;51.504;7.344;2023-04-24T05:22:54;10.20;77.20
40085;DHT22;25786;51.504;7.344;2023-04-24T05:25:27;10.20;77.20
40085;DHT22;25786;51.504;7.344;2023-04-24T05:27:55;10.20;77.00
40085;DHT22;25786;51.504;7.344;2023-04-24T05:30:23;10.20;77.10
40085;DHT22;25786;51.504;7.344;2023-04-24T05:32:49;10.20;76.90
40085;DHT22;25786;51.504;7.344;2023-04-24T05:35:16;10.30;77.10
40085;DHT22;25786;51.504;7.344;2023-04-24T05:37:46;10.50;76.10
40085;DHT22;25786;51.504;7.344;2023-04-24T05:40:19;10.60;75.80
40085;DHT22;25786;51.504;7.344;2023-04-24T05:42:54;10.50;75.30
40085;DHT22;25786;51.504;7.344;2023-04-24T05:45:20;10.30;75.90
40085;DHT22;25786;51.504;7.344;2023-04-24T05:47:45;10.30;76.10
40085;DHT22;25786;51.504;7.344;2023-04-24T05:50:11;10.20;76.80
40085;DHT22;25786;51.504;7.344;2023-04-24T05:52:39;10.20;78.00
40085;DHT22;25786;51.504;7.344;2023-04-24T05:55:07;10.10;79.10
40085;DHT22;25786;51.504;7.344;2023-04-24T05:57:33;10.00;80.00
40085;DHT22;25786;51.504;7.344;2023-04-24T05:59:58;9.90;80.70
40085;DHT22;25786;51.504;7.344;2023-04-24T06:02:24;9.80;82.00
40085;DHT22;25786;51.504;7.344;2023-04-24T06:04:49;9.70;82.30
40085;DHT22;25786;51.504;7.344;2023-04-24T06:07:18;9.70;82.90
40085;DHT22;25786;51.504;7.344;2023-04-24T06:09:43;9.60;83.10
40085;DHT22;25786;51.504;7.344;2023-04-24T06:12:09;9.70;83.20
40085;DHT22;25786;51.504;7.344;2023-04-24T06:14:35;9.60;83.00
40085;DHT22;25786;51.504;7.344;2023-04-24T06:17:00;9.60;82.60
40085;DHT22;25786;51.504;7.344;2023-04-24T06:19:26;9.70;82.80
40085;DHT22;25786;51.504;7.344;2023-04-24T06:21:51;9.80;82.90
40085;DHT22;25786;51.504;7.344;2023-04-24T06:24:17;9.80;82.90
40085;DHT22;25786;51.504;7.344;2023-04-24T06:26:42;9.70;82.70
40085;DHT22;25786;51.504;7.344;2023-04-24T06:29:08;9.80;82.20
40085;DHT22;25786;51.504;7.344;2023-04-24T06:31:33;9.70;82.20
40085;DHT22;25786;51.504;7.344;2023-04-24T06:34:02;9.70;81.70
40085;DHT22;25786;51.504;7.344;2023-04-24T06:36:28;9.70;82.40
40085;DHT22;25786;51.504;7.344;2023-04-24T06:38:53;9.70;82.20
40085;DHT22;25786;51.504;7.344;2023-04-24T06:41:19;9.70;81.90
40085;DHT22;25786;51.504;7.344;2023-04-24T06:43:44;9.80;81.80
40085;DHT22;25786;51.504;7.344;2023-04-24T06:46:10;9.70;81.80
40085;DHT22;25786;51.504;7.344;2023-04-24T06:48:38;9.70;81.20
40085;DHT22;25786;51.504;7.344;2023-04-24T06:51:04;9.80;81.20
40085;DHT22;25786;51.504;7.344;2023-04-24T06:53:32;9.90;80.60
40085;DHT22;25786;51.504;7.344;2023-04-24T06:55:57;9.90;80.80
40085;DHT22;25786;51.504;7.344;2023-04-24T06:58:23;10.00;81.40
40085;DHT22;25786;51.504;7.344;2023-04-24T07:00:49;10.10;80.60
40085;DHT22;25786;51.504;7.344;2023-04-24T07:03:20;10.30;80.80
40085;DHT22;25786;51.504;7.344;2023-04-24T07:05:48;10.40;80.50
40085;DHT22;25786;51.504;7.344;2023-04-24T07:08:23;10.50;79.60
40085;DHT22;25786;51.504;7.344;2023-04-24T07:10:49;10.60;79.90
40085;DHT22;25786;51.504;7.344;2023-04-24T07:13:14;10.60;80.00
40085;DHT22;25786;51.504;7.344;2023-04-24T07:15:40;10.40;81.10
40085;DHT22;25786;51.504;7.344;2023-04-24T07:18:06;10.20;81.60
40085;DHT22;25786;51.504;7.344;2023-04-24T07:20:32;10.10;82.40
40085;DHT22;25786;51.504;7.344;2023-04-24T07:22:58;10.00;82.20
40085;DHT22;25786;51.504;7.344;2023-04-24T07:25:23;10.10;82.60
40085;DHT22;25786;51.504;7.344;2023-04-24T07:27:49;10.10;81.80
40085;DHT22;25786;51.504;7.344;2023-04-24T07:30:14;10.20;82.10
40085;DHT22;25786;51.504;7.344;2023-04-24T07:32:40;10.20;81.80
40085;DHT22;25786;51.504;7.344;2023-04-24T07:35:05;10.20;81.90
40085;DHT22;25786;51.504;7.344;2023-04-24T07:37:31;10.20;81.10
40085;DHT22;25786;51.504;7.344;2023-04-24T07:39:57;10.10;80.90
40085;DHT22;25786;51.504;7.344;2023-04-24T07:42:22;10.00;81.60
40085;DHT22;25786;51.504;7.344;2023-04-24T07:44:47;10.00;81.80
40085;DHT22;25786;51.504;7.344;2023-04-24T07:47:13;9.90;81.70
40085;DHT22;25786;51.504;7.344;2023-04-24T07:49:41;9.90;81.30
40085;DHT22;25786;51.504;7.344;2023-04-24T07:52:06;9.80;81.90
40085;DHT22;25786;51.504;7.344;2023-04-24T07:54:32;9.80;82.50
40085;DHT22;25786;51.504;7.344;2023-04-24T07:56:57;9.90;83.10
40085;DHT22;25786;51.504;7.344;2023-04-24T07:59:23;9.90;83.00
40085;DHT22;25786;51.504;7.344;2023-04-24T08:01:48;9.80;83.10
40085;DHT22;25786;51.504;7.344;2023-04-24T08:04:14;9.80;83.50
40085;DHT22;25786;51.504;7.344;2023-04-24T08:06:39;9.90;82.50
40085;DHT22;25786;51.504;7.344;2023-04-24T08:09:05;10.00;82.50
40085;DHT22;25786;51.504;7.344;2023-04-24T08:11:30;10.20;82.30
40085;DHT22;25786;51.504;7.344;2023-04-24T08:13:57;10.30;81.40
40085;DHT22;25786;51.504;7.344;2023-04-24T08:16:32;10.20;80.30
40085;DHT22;25786;51.504;7.344;2023-04-24T08:19:08;10.10;79.80
40085;DHT22;25786;51.504;7.344;2023-04-24T08:21:33;10.00;80.20
40085;DHT22;25786;51.504;7.344;2023-04-24T08:26:55;9.90;81.90
40085;DHT22;25786;51.504;7.344;2023-04-24T08:29:33;9.80;81.40
40085;DHT22;25786;51.504;7.344;2023-04-24T08:32:10;9.90;81.10
40085;DHT22;25786;51.504;7.344;2023-04-24T08:34:36;9.80;80.80
40085;DHT22;25786;51.504;7.344;2023-04-24T08:37:02;9.70;81.30
40085;DHT22;25786;51.504;7.344;2023-04-24T08:39:27;9.60;81.40
40085;DHT22;25786;51.504;7.344;2023-04-24T08:41:53;9.60;82.20
40085;DHT22;25786;51.504;7.344;2023-04-24T08:44:19;9.60;82.50
40085;DHT22;25786;51.504;7.344;2023-04-24T08:46:45;9.60;82.30
40085;DHT22;25786;51.504;7.344;2023-04-24T08:49:11;9.50;82.90
40085;DHT22;25786;51.504;7.344;2023-04-24T08:51:37;9.50;83.00
40085;DHT22;25786;51.504;7.344;2023-04-24T08:54:03;9.40;83.20
40085;DHT22;25786;51.504;7.344;2023-04-24T08:56:29;9.40;83.60
40085;DHT22;25786;51.504;7.344;2023-04-24T08:58:57;9.30;84.50
40085;DHT22;25786;51.504;7.344;2023-04-24T09:01:23;9.30;84.40
40085;DHT22;25786;51.504;7.344;2023-04-24T09:03:50;9.30;85.00
40085;DHT22;25786;51.504;7.344;2023-04-24T09:06:17;9.30;85.70
40085;DHT22;25786;51.504;7.344;2023-04-24T09:08:43;9.30;86.00
40085;DHT22;25786;51.504;7.344;2023-04-24T09:11:10;9.20;86.20
40085;DHT22;25786;51.504;7.344;2023-04-24T09:13:36;9.10;86.50
40085;DHT22;25786;51.504;7.344;2023-04-24T09:16:02;9.00;87.20
40085;DHT22;25786;51.504;7.344;2023-04-24T09:18:27;9.10;87.90
40085;DHT22;25786;51.504;7.344;2023-04-24T09:21:08;9.10;87.80
40085;DHT22;25786;51.504;7.344;2023-04-24T09:23:34;9.20;88.00
40085;DHT22;25786;51.504;7.344;2023-04-24T09:26:01;9.20;87.70
40085;DHT22;25786;51.504;7.344;2023-04-24T09:28:30;9.20;87.80
40085;DHT22;25786;51.504;7.344;2023-04-24T09:31:09;9.10;87.50
40085;DHT22;25786;51.504;7.344;2023-04-24T09:33:34;9.10;88.30
40085;DHT22;25786;51.504;7.344;2023-04-24T09:36:00;9.30;88.50
40085;DHT22;25786;51.504;7.344;2023-04-24T09:38:37;9.30;88.50
40085;DHT22;25786;51.504;7.344;2023-04-24T09:41:03;9.50;88.00
40085;DHT22;25786;51.504;7.344;2023-04-24T09:43:29;9.50;87.80
40085;DHT22;25786;51.504;7.344;2023-04-24T09:45:56;9.60;87.50
40085;DHT22;25786;51.504;7.344;2023-04-24T09:48:34;9.60;87.10
40085;DHT22;25786;51.504;7.344;2023-04-24T09:51:01;9.60;87.90
40085;DHT22;25786;51.504;7.344;2023-04-24T09:53:27;9.60;88.00
40085;DHT22;25786;51.504;7.344;2023-04-24T09:55:52;9.70;88.10
40085;DHT22;25786;51.504;7.344;2023-04-24T09:58:18;9.70;87.80
40085;DHT22;25786;51.504;7.344;2023-04-24T10:00:49;9.60;88.00
40085;DHT22;25786;51.504;7.344;2023-04-24T10:03:18;9.60;88.50
40085;DHT22;25786;51.504;7.344;2023-04-24T10:05:44;9.70;88.80
40085;DHT22;25786;51.504;7.344;2023-04-24T10:08:11;9.70;87.60
40085;DHT22;25786;51.504;7.344;2023-04-24T10:10:46;9.60;87.00
40085;DHT22;25786;51.504;7.344;2023-04-24T10:13:12;9.40;86.20
40085;DHT22;25786;51.504;7.344;2023-04-24T10:15:38;9.30;86.90
40085;DHT22;25786;51.504;7.344;2023-04-24T10:18:04;9.10;86.80
40085;DHT22;25786;51.504;7.344;2023-04-24T10:20:31;9.10;87.50
40085;DHT22;25786;51.504;7.344;2023-04-24T10:22:57;9.00;87.60
40085;DHT22;25786;51.504;7.344;2023-04-24T10:25:24;9.00;88.90
40085;DHT22;25786;51.504;7.344;2023-04-24T10:27:50;8.80;87.50
40085;DHT22;25786;51.504;7.344;2023-04-24T10:30:17;8.80;88.10
40085;DHT22;25786;51.504;7.344;2023-04-24T10:32:42;8.80;88.30
40085;DHT22;25786;51.504;7.344;2023-04-24T10:35:08;8.80;88.20
40085;DHT22;25786;51.504;7.344;2023-04-24T10:37:38;8.60;88.10
40085;DHT22;25786;51.504;7.344;2023-04-24T10:40:04;8.80;88.30
40085;DHT22;25786;51.504;7.344;2023-04-24T10:42:30;8.70;87.90
40085;DHT22;25786;51.504;7.344;2023-04-24T10:44:56;8.70;87.90
40085;DHT22;25786;51.504;7.344;2023-04-24T10:47:23;8.80;88.40
40085;DHT22;25786;51.504;7.344;2023-04-24T10:49:50;8.80;88.40
40085;DHT22;25786;51.504;7.344;2023-04-24T10:52:16;9.00;89.40
40085;DHT22;25786;51.504;7.344;2023-04-24T10:54:45;9.20;89.00
40085;DHT22;25786;51.504;7.344;2023-04-24T10:59:52;9.40;88.40
40085;DHT22;25786;51.504;7.344;2023-04-24T11:02:35;9.30;88.40
40085;DHT22;25786;51.504;7.344;2023-04-24T11:05:03;9.30;88.50
40085;DHT22;25786;51.504;7.344;2023-04-24T11:07:28;9.30;88.10
40085;DHT22;25786;51.504;7.344;2023-04-24T11:10:00;9.20;87.60
40085;DHT22;25786;51.504;7.344;2023-04-24T11:12:26;9.30;87.90
40085;DHT22;25786;51.504;7.344;2023-04-24T11:17:28;9.30;88.50
40085;DHT22;25786;51.504;7.344;2023-04-24T11:19:53;9.20;88.50
40085;DHT22;25786;51.504;7.344;2023-04-24T11:22:25;9.30;88.20
40085;DHT22;25786;51.504;7.344;2023-04-24T11:24:53;9.40;87.90
40085;DHT22;25786;51.504;7.344;2023-04-24T11:27:19;9.40;88.30
40085;DHT22;25786;51.504;7.344;2023-04-24T11:32:24;9.50;88.30
40085;DHT22;25786;51.504;7.344;2023-04-24T11:34:51;9.50;88.50
40085;DHT22;25786;51.504;7.344;2023-04-24T11:37:17;9.60;88.00
40085;DHT22;25786;51.504;7.344;2023-04-24T11:39:42;9.60;87.70
40085;DHT22;25786;51.504;7.344;2023-04-24T11:42:08;9.60;87.80
40085;DHT22;25786;51.504;7.344;2023-04-24T11:44:34;9.70;87.90
40085;DHT22;25786;51.504;7.344;2023-04-24T11:47:05;9.60;87.50
40085;DHT22;25786;51.504;7.344;2023-04-24T11:49:32;9.70;87.60
40085;DHT22;25786;51.504;7.344;2023-04-24T11:51:57;10.00;87.10
40085;DHT22;25786;51.504;7.344;2023-04-24T11:54:23;10.10;87.00
40085;DHT22;25786;51.504;7.344;2023-04-24T11:56:49;10.10;87.20
40085;DHT22;25786;51.504;7.344;2023-04-24T11:59:14;10.10;87.10
40085;DHT22;25786;51.504;7.344;2023-04-24T12:01:43;10.10;86.80
40085;DHT22;25786;51.504;7.344;2023-04-24T12:04:10;10.10;86.70
40085;DHT22;25786;51.504;7.344;2023-04-24T12:06:35;10.00;85.60
40085;DHT22;25786;51.504;7.344;2023-04-24T12:09:01;10.00;85.90
40085;DHT22;25786;51.504;7.344;2023-04-24T12:11:26;9.80;86.60
40085;DHT22;25786;51.504;7.344;2023-04-24T12:13:52;9.70;86.60
40085;DHT22;25786;51.504;7.344;2023-04-24T12:16:17;9.60;86.20
40085;DHT22;25786;51.504;7.344;2023-04-24T12:18:43;9.60;86.50
40085;DHT22;25786;51.504;7.344;2023-04-24T12:21:19;9.60;86.10
40085;DHT22;25786;51.504;7.344;2023-04-24T12:23:45;9.50;86.50
40085;DHT22;25786;51.504;7.344;2023-04-24T12:26:11;9.60;84.80
40085;DHT22;25786;51.504;7.344;2023-04-24T12:28:38;9.60;84.90
40085;DHT22;25786;51.504;7.344;2023-04-24T12:31:03;9.80;84.40
40085;DHT22;25786;51.504;7.344;2023-04-24T12:33:32;10.10;83.60
40085;DHT22;25786;51.504;7.344;2023-04-24T12:35:58;10.40;84.70
40085;DHT22;25786;51.504;7.344;2023-04-24T12:38:25;10.60;83.20
40085;DHT22;25786;51.504;7.344;2023-04-24T12:41:04;10.80;83.40
40085;DHT22;25786;51.504;7.344;2023-04-24T12:43:30;10.90;81.80
40085;DHT22;25786;51.504;7.344;2023-04-24T12:45:55;10.80;80.90
40085;DHT22;25786;51.504;7.344;2023-04-24T12:48:21;10.60;80.70
40085;DHT22;25786;51.504;7.344;2023-04-24T12:50:47;10.60;80.40
40085;DHT22;25786;51.504;7.344;2023-04-24T12:53:13;10.40;79.10
40085;DHT22;25786;51.504;7.344;2023-04-24T12:55:38;10.30;79.10
40085;DHT22;25786;51.504;7.344;2023-04-24T12:58:04;10.30;80.10
40085;DHT22;25786;51.504;7.344;2023-04-24T13:00:29;10.20;80.50
40085;DHT22;25786;51.504;7.344;2023-04-24T13:02:55;10.00;80.90
40085;DHT22;25786;51.504;7.344;2023-04-24T13:05:20;10.10;80.50
40085;DHT22;25786;51.504;7.344;2023-04-24T13:07:46;10.10;80.70
40085;DHT22;25786;51.504;7.344;2023-04-24T13:10:12;10.00;80.80
40085;DHT22;25786;51.504;7.344;2023-04-24T13:12:38;10.00;81.00
40085;DHT22;25786;51.504;7.344;2023-04-24T13:15:04;10.10;81.00
40085;DHT22;25786;51.504;7.344;2023-04-24T13:17:30;10.30;80.00
40085;DHT22;25786;51.504;7.344;2023-04-24T13:19:55;10.50;80.60
40085;DHT22;25786;51.504;7.344;2023-04-24T13:22:21;10.60;80.80
40085;DHT22;25786;51.504;7.344;2023-04-24T13:24:46;10.60;79.80
40085;DHT22;25786;51.504;7.344;2023-04-24T13:27:14;10.70;76.70
40085;DHT22;25786;51.504;7.344;2023-04-24T13:29:39;10.80;77.50
40085;DHT22;25786;51.504;7.344;2023-04-24T13:32:05;10.90;78.50
40085;DHT22;25786;51.504;7.344;2023-04-24T13:34:31;10.80;75.80
40085;DHT22;25786;51.504;7.344;2023-04-24T13:36:56;10.60;76.00
40085;DHT22;25786;51.504;7.344;2023-04-24T13:39:23;10.50;74.60
40085;DHT22;25786;51.504;7.344;2023-04-24T13:41:48;10.50;75.40
40085;DHT22;25786;51.504;7.344;2023-04-24T13:44:14;10.50;74.20
40085;DHT22;25786;51.504;7.344;2023-04-24T13:46:40;10.30;74.80
40085;DHT22;25786;51.504;7.344;2023-04-24T13:49:06;10.30;74.80
40085;DHT22;25786;51.504;7.344;2023-04-24T13:51:32;10.30;73.50
40085;DHT22;25786;51.504;7.344;2023-04-24T13:53:57;10.30;75.40
40085;DHT22;25786;51.504;7.344;2023-04-24T13:56:23;10.30;74.40
40085;DHT22;25786;51.504;7.344;2023-04-24T13:58:48;10.30;73.50
40085;DHT22;25786;51.504;7.344;2023-04-24T14:01:14;10.20;75.60
40085;DHT22;25786;51.504;7.344;2023-04-24T14:03:41;10.20;74.40
40085;DHT22;25786;51.504;7.344;2023-04-24T14:06:06;10.20;75.20
40085;DHT22;25786;51.504;7.344;2023-04-24T14:08:32;10.20;74.40
40085;DHT22;25786;51.504;7.344;2023-04-24T14:10:57;10.20;74.60
40085;DHT22;25786;51.504;7.344;2023-04-24T14:13:23;10.30;74.80
40085;DHT22;25786;51.504;7.344;2023-04-24T14:15:48;10.40;75.60
40085;DHT22;25786;51.504;7.344;2023-04-24T14:18:14;10.60;75.60
40085;DHT22;25786;51.504;7.344;2023-04-24T14:20:39;10.90;75.30
40085;DHT22;25786;51.504;7.344;2023-04-24T14:23:05;11.10;72.30
40085;DHT22;25786;51.504;7.344;2023-04-24T14:25:30;11.10;72.40
40085;DHT22;25786;51.504;7.344;2023-04-24T14:27:56;11.10;71.30
40085;DHT22;25786;51.504;7.344;2023-04-24T14:30:21;11.20;69.80
40085;DHT22;25786;51.504;7.344;2023-04-24T14:32:48;11.40;70.80
40085;DHT22;25786;51.504;7.344;2023-04-24T14:35:13;11.50;69.60
40085;DHT22;25786;51.504;7.344;2023-04-24T14:37:39;11.50;69.80
40085;DHT22;25786;51.504;7.344;2023-04-24T14:40:06;11.50;69.70
40085;DHT22;25786;51.504;7.344;2023-04-24T14:42:33;11.40;70.70
40085;DHT22;25786;51.504;7.344;2023-04-24T14:44:59;11.40;70.90
40085;DHT22;25786;51.504;7.344;2023-04-24T14:47:24;11.20;69.50
40085;DHT22;25786;51.504;7.344;2023-04-24T14:49:50;11.10;69.70
40085;DHT22;25786;51.504;7.344;2023-04-24T14:52:16;11.00;70.60
40085;DHT22;25786;51.504;7.344;2023-04-24T14:54:42;10.90;70.90
40085;DHT22;25786;51.504;7.344;2023-04-24T14:57:10;10.80;69.80
40085;DHT22;25786;51.504;7.344;2023-04-24T14:59:36;10.90;70.80
40085;DHT22;25786;51.504;7.344;2023-04-24T15:02:01;10.80;71.90
40085;DHT22;25786;51.504;7.344;2023-04-24T15:04:27;10.70;72.90
40085;DHT22;25786;51.504;7.344;2023-04-24T15:06:53;10.60;73.40
40085;DHT22;25786;51.504;7.344;2023-04-24T15:09:19;10.50;73.90
40085;DHT22;25786;51.504;7.344;2023-04-24T15:11:47;10.30;74.90
40085;DHT22;25786;51.504;7.344;2023-04-24T15:14:12;10.30;75.80
40085;DHT22;25786;51.504;7.344;2023-04-24T15:16:38;10.20;77.90
40085;DHT22;25786;51.504;7.344;2023-04-24T15:19:03;10.20;78.00
40085;DHT22;25786;51.504;7.344;2023-04-24T15:21:29;10.20;77.20
40085;DHT22;25786;51.504;7.344;2023-04-24T15:23:54;10.20;77.70
40085;DHT22;25786;51.504;7.344;2023-04-24T15:26:20;10.20;78.30
40085;DHT22;25786;51.504;7.344;2023-04-24T15:28:46;10.20;79.70
40085;DHT22;25786;51.504;7.344;2023-04-24T15:31:12;10.10;80.80
40085;DHT22;25786;51.504;7.344;2023-04-24T15:33:37;10.30;79.60
40085;DHT22;25786;51.504;7.344;2023-04-24T15:36:03;10.40;80.90
40085;DHT22;25786;51.504;7.344;2023-04-24T15:38:28;10.40;81.20
40085;DHT22;25786;51.504;7.344;2023-04-24T15:40:54;10.40;81.00
40085;DHT22;25786;51.504;7.344;2023-04-24T15:43:19;10.60;81.30